sensor_id;sensor_type;location;lat;lon;timestamp;P1;durP1;ratioP1;P2;durP2;ratioP2
8279;SDS011;8335;42.646;23.380;2023-12-07T00:00:30;26.30;;;15.90;;
8279;SDS011;8335;42.646;23.380;2023-12-07T00:02:57;27.10;;;16.13;;
8279;SDS011;8335;42.646;23.380;2023-12-07T00:05:24;25.70;;;15.47;;
8279;SDS011;8335;42.646;23.380;2023-12-07T00:07:51;29.67;;;15.80;;
8279;SDS011;8335;42.646;23.380;2023-12-07T00:10:19;23.97;;;15.03;;
8279;SDS011;8335;42.646;23.380;2023-12-07T00:12:46;26.37;;;15.50;;
8279;SDS011;8335;42.646;23.380;2023-12-07T00:15:12;27.83;;;16.13;;
8279;SDS011;8335;42.646;23.380;2023-12-07T00:17:39;24.70;;;15.13;;
8279;SDS011;8335;42.646;23.380;2023-12-07T00:20:06;26.10;;;15.60;;
8279;SDS011;8335;42.646;23.380;2023-12-07T00:22:33;28.70;;;16.80;;
8279;SDS011;8335;42.646;23.380;2023-12-07T00:25:00;25.97;;;15.77;;
8279;SDS011;8335;42.646;23.380;2023-12-07T00:27:28;31.83;;;16.77;;
8279;SDS011;8335;42.646;23.380;2023-12-07T00:29:55;28.53;;;16.40;;
8279;SDS011;8335;42.646;23.380;2023-12-07T00:32:21;26.97;;;16.80;;
8279;SDS011;8335;42.646;23.380;2023-12-07T00:34:48;35.13;;;18.33;;
8279;SDS011;8335;42.646;23.380;2023-12-07T00:37:15;29.63;;;17.97;;
8279;SDS011;8335;42.646;23.380;2023-12-07T00:39:42;31.03;;;18.37;;
8279;SDS011;8335;42.646;23.380;2023-12-07T00:42:09;33.63;;;16.90;;
8279;SDS011;8335;42.646;23.380;2023-12-07T00:44:40;29.13;;;17.37;;
8279;SDS011;8335;42.646;23.380;2023-12-07T00:47:06;27.83;;;17.03;;
8279;SDS011;8335;42.646;23.380;2023-12-07T00:49:33;30.07;;;18.10;;
8279;SDS011;8335;42.646;23.380;2023-12-07T00:52:03;29.77;;;18.63;;
8279;SDS011;8335;42.646;23.380;2023-12-07T00:54:30;31.83;;;18.37;;
8279;SDS011;8335;42.646;23.380;2023-12-07T00:56:56;30.53;;;18.30;;
8279;SDS011;8335;42.646;23.380;2023-12-07T00:59:23;33.47;;;18.47;;
8279;SDS011;8335;42.646;23.380;2023-12-07T01:01:51;33.70;;;19.03;;
8279;SDS011;8335;42.646;23.380;2023-12-07T01:04:18;36.77;;;20.90;;
8279;SDS011;8335;42.646;23.380;2023-12-07T01:06:45;40.90;;;20.63;;
8279;SDS011;8335;42.646;23.380;2023-12-07T01:09:11;36.63;;;19.90;;
8279;SDS011;8335;42.646;23.380;2023-12-07T01:11:38;33.67;;;18.47;;
8279;SDS011;8335;42.646;23.380;2023-12-07T01:14:05;40.10;;;21.40;;
8279;SDS011;8335;42.646;23.380;2023-12-07T01:16:32;39.20;;;21.33;;
8279;SDS011;8335;42.646;23.380;2023-12-07T01:19:00;37.93;;;21.37;;
8279;SDS011;8335;42.646;23.380;2023-12-07T01:21:27;49.43;;;22.87;;
8279;SDS011;8335;42.646;23.380;2023-12-07T01:23:54;39.90;;;23.07;;
8279;SDS011;8335;42.646;23.380;2023-12-07T01:26:21;41.30;;;23.20;;
8279;SDS011;8335;42.646;23.380;2023-12-07T01:28:47;43.27;;;23.67;;
8279;SDS011;8335;42.646;23.380;2023-12-07T01:31:14;40.17;;;22.03;;
8279;SDS011;8335;42.646;23.380;2023-12-07T01:33:42;40.60;;;22.83;;
8279;SDS011;8335;42.646;23.380;2023-12-07T01:36:10;45.83;;;23.13;;
8279;SDS011;8335;42.646;23.380;2023-12-07T01:38:37;41.63;;;22.60;;
8279;SDS011;8335;42.646;23.380;2023-12-07T01:41:04;36.07;;;21.03;;
8279;SDS011;8335;42.646;23.380;2023-12-07T01:43:30;38.33;;;22.60;;
8279;SDS011;8335;42.646;23.380;2023-12-07T01:45:57;41.00;;;22.53;;
8279;SDS011;8335;42.646;23.380;2023-12-07T01:48:25;42.07;;;22.97;;
8279;SDS011;8335;42.646;23.380;2023-12-07T01:50:53;42.03;;;22.40;;
8279;SDS011;8335;42.646;23.380;2023-12-07T01:53:22;45.33;;;22.73;;
8279;SDS011;8335;42.646;23.380;2023-12-07T01:55:50;43.77;;;22.30;;
8279;SDS011;8335;42.646;23.380;2023-12-07T01:58:18;43.50;;;24.13;;
8279;SDS011;8335;42.646;23.380;2023-12-07T02:00:45;46.00;;;22.17;;
8279;SDS011;8335;42.646;23.380;2023-12-07T02:03:13;43.87;;;23.23;;
8279;SDS011;8335;42.646;23.380;2023-12-07T02:05:40;42.40;;;22.07;;
8279;SDS011;8335;42.646;23.380;2023-12-07T02:08:09;41.93;;;23.67;;
8279;SDS011;8335;42.646;23.380;2023-12-07T02:10:37;42.83;;;23.03;;
8279;SDS011;8335;42.646;23.380;2023-12-07T02:13:04;43.03;;;23.30;;
8279;SDS011;8335;42.646;23.380;2023-12-07T02:15:32;46.07;;;23.43;;
8279;SDS011;8335;42.646;23.380;2023-12-07T02:18:01;41.83;;;22.83;;
8279;SDS011;8335;42.646;23.380;2023-12-07T02:20:35;44.90;;;24.03;;
8279;SDS011;8335;42.646;23.380;2023-12-07T02:23:07;41.67;;;22.20;;
8279;SDS011;8335;42.646;23.380;2023-12-07T02:25:36;40.13;;;22.83;;
8279;SDS011;8335;42.646;23.380;2023-12-07T02:28:08;40.70;;;22.30;;
8279;SDS011;8335;42.646;23.380;2023-12-07T02:30:35;42.33;;;22.53;;
8279;SDS011;8335;42.646;23.380;2023-12-07T02:33:02;41.20;;;22.77;;
8279;SDS011;8335;42.646;23.380;2023-12-07T02:35:30;39.23;;;22.73;;
8279;SDS011;8335;42.646;23.380;2023-12-07T02:37:57;41.40;;;22.80;;
8279;SDS011;8335;42.646;23.380;2023-12-07T02:40:25;42.03;;;23.03;;
8279;SDS011;8335;42.646;23.380;2023-12-07T02:42:53;41.67;;;21.57;;
8279;SDS011;8335;42.646;23.380;2023-12-07T02:45:22;42.67;;;22.87;;
8279;SDS011;8335;42.646;23.380;2023-12-07T02:47:50;44.47;;;22.70;;
8279;SDS011;8335;42.646;23.380;2023-12-07T02:50:17;41.40;;;23.13;;
8279;SDS011;8335;42.646;23.380;2023-12-07T02:52:44;42.30;;;22.13;;
8279;SDS011;8335;42.646;23.380;2023-12-07T02:55:11;39.67;;;21.53;;
8279;SDS011;8335;42.646;23.380;2023-12-07T02:57:38;41.03;;;22.80;;
8279;SDS011;8335;42.646;23.380;2023-12-07T03:00:05;40.13;;;22.17;;
8279;SDS011;8335;42.646;23.380;2023-12-07T03:02:34;44.50;;;22.70;;
8279;SDS011;8335;42.646;23.380;2023-12-07T03:05:01;42.77;;;22.37;;
8279;SDS011;8335;42.646;23.380;2023-12-07T03:07:28;40.30;;;21.60;;
8279;SDS011;8335;42.646;23.380;2023-12-07T03:09:55;41.37;;;20.93;;
8279;SDS011;8335;42.646;23.380;2023-12-07T03:12:22;42.57;;;21.40;;
8279;SDS011;8335;42.646;23.380;2023-12-07T03:14:49;41.13;;;20.63;;
8279;SDS011;8335;42.646;23.380;2023-12-07T03:17:15;41.57;;;21.47;;
8279;SDS011;8335;42.646;23.380;2023-12-07T03:19:44;42.90;;;22.83;;
8279;SDS011;8335;42.646;23.380;2023-12-07T03:22:10;41.27;;;22.10;;
8279;SDS011;8335;42.646;23.380;2023-12-07T03:24:38;44.13;;;22.80;;
8279;SDS011;8335;42.646;23.380;2023-12-07T03:27:06;40.67;;;22.00;;
8279;SDS011;8335;42.646;23.380;2023-12-07T03:29:33;40.87;;;22.53;;
8279;SDS011;8335;42.646;23.380;2023-12-07T03:32:02;41.90;;;21.53;;
8279;SDS011;8335;42.646;23.380;2023-12-07T03:34:29;44.03;;;21.77;;
8279;SDS011;8335;42.646;23.380;2023-12-07T03:36:58;36.97;;;20.73;;
8279;SDS011;8335;42.646;23.380;2023-12-07T03:39:24;38.37;;;20.87;;
8279;SDS011;8335;42.646;23.380;2023-12-07T03:41:52;41.37;;;21.10;;
8279;SDS011;8335;42.646;23.380;2023-12-07T03:44:19;36.63;;;20.80;;
8279;SDS011;8335;42.646;23.380;2023-12-07T03:46:45;42.23;;;21.27;;
8279;SDS011;8335;42.646;23.380;2023-12-07T03:49:12;39.57;;;21.27;;
8279;SDS011;8335;42.646;23.380;2023-12-07T03:51:39;38.50;;;20.93;;
8279;SDS011;8335;42.646;23.380;2023-12-07T03:54:07;37.33;;;21.10;;
8279;SDS011;8335;42.646;23.380;2023-12-07T03:56:34;39.67;;;20.40;;
8279;SDS011;8335;42.646;23.380;2023-12-07T03:59:00;39.77;;;20.47;;
8279;SDS011;8335;42.646;23.380;2023-12-07T04:01:28;35.77;;;20.30;;
8279;SDS011;8335;42.646;23.380;2023-12-07T04:03:56;35.20;;;20.87;;
8279;SDS011;8335;42.646;23.380;2023-12-07T04:06:24;43.17;;;21.57;;
8279;SDS011;8335;42.646;23.380;2023-12-07T04:08:51;37.77;;;21.57;;
8279;SDS011;8335;42.646;23.380;2023-12-07T04:11:19;41.67;;;22.77;;
8279;SDS011;8335;42.646;23.380;2023-12-07T04:13:47;37.60;;;21.77;;
8279;SDS011;8335;42.646;23.380;2023-12-07T04:16:14;35.80;;;20.93;;
8279;SDS011;8335;42.646;23.380;2023-12-07T04:18:41;36.20;;;20.77;;
8279;SDS011;8335;42.646;23.380;2023-12-07T04:21:08;37.23;;;21.33;;
8279;SDS011;8335;42.646;23.380;2023-12-07T04:23:34;40.33;;;22.27;;
8279;SDS011;8335;42.646;23.380;2023-12-07T04:26:01;38.83;;;20.97;;
8279;SDS011;8335;42.646;23.380;2023-12-07T04:28:29;40.37;;;21.10;;
8279;SDS011;8335;42.646;23.380;2023-12-07T04:30:56;38.57;;;20.60;;
8279;SDS011;8335;42.646;23.380;2023-12-07T04:33:23;39.03;;;21.30;;
8279;SDS011;8335;42.646;23.380;2023-12-07T04:35:49;36.00;;;20.43;;
8279;SDS011;8335;42.646;23.380;2023-12-07T04:38:16;41.37;;;21.53;;
8279;SDS011;8335;42.646;23.380;2023-12-07T04:40:43;40.37;;;21.90;;
8279;SDS011;8335;42.646;23.380;2023-12-07T04:43:10;40.03;;;21.17;;
8279;SDS011;8335;42.646;23.380;2023-12-07T04:45:38;41.80;;;21.83;;
8279;SDS011;8335;42.646;23.380;2023-12-07T04:48:05;39.57;;;21.47;;
8279;SDS011;8335;42.646;23.380;2023-12-07T04:50:31;37.20;;;21.10;;
8279;SDS011;8335;42.646;23.380;2023-12-07T04:52:58;40.30;;;21.77;;
8279;SDS011;8335;42.646;23.380;2023-12-07T04:55:25;39.07;;;22.47;;
8279;SDS011;8335;42.646;23.380;2023-12-07T04:57:52;38.80;;;22.03;;
8279;SDS011;8335;42.646;23.380;2023-12-07T05:00:19;40.00;;;21.87;;
8279;SDS011;8335;42.646;23.380;2023-12-07T05:02:47;39.63;;;22.23;;
8279;SDS011;8335;42.646;23.380;2023-12-07T05:05:14;39.30;;;22.50;;
8279;SDS011;8335;42.646;23.380;2023-12-07T05:07:41;37.87;;;20.80;;
8279;SDS011;8335;42.646;23.380;2023-12-07T05:10:08;39.20;;;21.77;;
8279;SDS011;8335;42.646;23.380;2023-12-07T05:12:35;42.17;;;22.20;;
8279;SDS011;8335;42.646;23.380;2023-12-07T05:15:02;37.20;;;20.97;;
8279;SDS011;8335;42.646;23.380;2023-12-07T05:17:29;36.10;;;21.10;;
8279;SDS011;8335;42.646;23.380;2023-12-07T05:19:57;34.07;;;19.93;;
8279;SDS011;8335;42.646;23.380;2023-12-07T05:22:24;39.03;;;20.00;;
8279;SDS011;8335;42.646;23.380;2023-12-07T05:24:51;34.43;;;19.80;;
8279;SDS011;8335;42.646;23.380;2023-12-07T05:27:17;33.23;;;19.20;;
8279;SDS011;8335;42.646;23.380;2023-12-07T05:29:44;35.63;;;19.47;;
8279;SDS011;8335;42.646;23.380;2023-12-07T05:32:11;33.63;;;19.60;;
8279;SDS011;8335;42.646;23.380;2023-12-07T05:34:38;34.33;;;19.97;;
8279;SDS011;8335;42.646;23.380;2023-12-07T05:37:07;31.60;;;18.70;;
8279;SDS011;8335;42.646;23.380;2023-12-07T05:39:33;40.30;;;19.83;;
8279;SDS011;8335;42.646;23.380;2023-12-07T05:42:00;30.43;;;18.80;;
8279;SDS011;8335;42.646;23.380;2023-12-07T05:44:29;30.90;;;17.57;;
8279;SDS011;8335;42.646;23.380;2023-12-07T05:46:56;32.43;;;18.30;;
8279;SDS011;8335;42.646;23.380;2023-12-07T05:49:22;29.70;;;18.03;;
8279;SDS011;8335;42.646;23.380;2023-12-07T05:51:49;30.43;;;17.13;;
8279;SDS011;8335;42.646;23.380;2023-12-07T05:54:19;31.20;;;18.03;;
8279;SDS011;8335;42.646;23.380;2023-12-07T05:56:47;34.87;;;17.13;;
8279;SDS011;8335;42.646;23.380;2023-12-07T05:59:14;31.17;;;17.57;;
8279;SDS011;8335;42.646;23.380;2023-12-07T06:01:40;35.47;;;19.10;;
8279;SDS011;8335;42.646;23.380;2023-12-07T06:04:08;34.27;;;18.73;;
8279;SDS011;8335;42.646;23.380;2023-12-07T06:06:35;31.27;;;18.00;;
8279;SDS011;8335;42.646;23.380;2023-12-07T06:09:02;33.37;;;18.67;;
8279;SDS011;8335;42.646;23.380;2023-12-07T06:11:31;33.00;;;17.93;;
8279;SDS011;8335;42.646;23.380;2023-12-07T06:13:58;33.40;;;17.93;;
8279;SDS011;8335;42.646;23.380;2023-12-07T06:16:25;30.43;;;18.43;;
8279;SDS011;8335;42.646;23.380;2023-12-07T06:18:52;30.47;;;17.97;;
8279;SDS011;8335;42.646;23.380;2023-12-07T06:21:19;29.93;;;18.00;;
8279;SDS011;8335;42.646;23.380;2023-12-07T06:23:46;30.33;;;18.30;;
8279;SDS011;8335;42.646;23.380;2023-12-07T06:26:12;35.50;;;19.33;;
8279;SDS011;8335;42.646;23.380;2023-12-07T06:28:41;31.07;;;18.63;;
8279;SDS011;8335;42.646;23.380;2023-12-07T06:31:07;31.10;;;17.30;;
8279;SDS011;8335;42.646;23.380;2023-12-07T06:33:34;29.07;;;17.40;;
8279;SDS011;8335;42.646;23.380;2023-12-07T06:36:01;33.83;;;19.23;;
8279;SDS011;8335;42.646;23.380;2023-12-07T06:38:29;33.93;;;18.23;;
8279;SDS011;8335;42.646;23.380;2023-12-07T06:40:56;29.97;;;18.43;;
8279;SDS011;8335;42.646;23.380;2023-12-07T06:43:23;29.10;;;17.03;;
8279;SDS011;8335;42.646;23.380;2023-12-07T06:45:51;27.77;;;17.23;;
8279;SDS011;8335;42.646;23.380;2023-12-07T06:48:18;29.30;;;17.33;;
8279;SDS011;8335;42.646;23.380;2023-12-07T06:50:45;30.47;;;17.13;;
8279;SDS011;8335;42.646;23.380;2023-12-07T06:53:11;29.07;;;17.13;;
8279;SDS011;8335;42.646;23.380;2023-12-07T06:55:39;32.77;;;16.80;;
8279;SDS011;8335;42.646;23.380;2023-12-07T06:58:06;28.80;;;16.93;;
8279;SDS011;8335;42.646;23.380;2023-12-07T07:00:34;32.00;;;16.60;;
8279;SDS011;8335;42.646;23.380;2023-12-07T07:03:02;26.83;;;15.60;;
8279;SDS011;8335;42.646;23.380;2023-12-07T07:05:29;24.60;;;14.57;;
8279;SDS011;8335;42.646;23.380;2023-12-07T07:07:56;25.70;;;15.77;;
8279;SDS011;8335;42.646;23.380;2023-12-07T07:10:23;26.00;;;14.00;;
8279;SDS011;8335;42.646;23.380;2023-12-07T07:12:50;23.33;;;14.17;;
8279;SDS011;8335;42.646;23.380;2023-12-07T07:15:16;23.93;;;13.00;;
8279;SDS011;8335;42.646;23.380;2023-12-07T07:17:43;23.73;;;13.70;;
8279;SDS011;8335;42.646;23.380;2023-12-07T07:20:11;24.00;;;13.60;;
8279;SDS011;8335;42.646;23.380;2023-12-07T07:22:38;22.57;;;12.70;;
8279;SDS011;8335;42.646;23.380;2023-12-07T07:25:06;23.30;;;12.40;;
8279;SDS011;8335;42.646;23.380;2023-12-07T07:27:33;23.97;;;12.63;;
8279;SDS011;8335;42.646;23.380;2023-12-07T07:30:00;21.90;;;12.07;;
8279;SDS011;8335;42.646;23.380;2023-12-07T07:32:29;21.80;;;11.87;;
8279;SDS011;8335;42.646;23.380;2023-12-07T07:34:56;20.77;;;11.87;;
8279;SDS011;8335;42.646;23.380;2023-12-07T07:37:25;21.60;;;11.70;;
8279;SDS011;8335;42.646;23.380;2023-12-07T07:39:52;21.43;;;11.40;;
8279;SDS011;8335;42.646;23.380;2023-12-07T07:42:19;20.27;;;11.90;;
8279;SDS011;8335;42.646;23.380;2023-12-07T07:44:45;19.13;;;11.43;;
8279;SDS011;8335;42.646;23.380;2023-12-07T07:47:12;25.43;;;11.83;;
8279;SDS011;8335;42.646;23.380;2023-12-07T07:49:39;17.33;;;11.17;;
8279;SDS011;8335;42.646;23.380;2023-12-07T07:52:05;21.63;;;12.63;;
8279;SDS011;8335;42.646;23.380;2023-12-07T07:54:34;22.93;;;12.50;;
8279;SDS011;8335;42.646;23.380;2023-12-07T07:57:02;20.83;;;12.97;;
8279;SDS011;8335;42.646;23.380;2023-12-07T07:59:29;21.60;;;12.83;;
8279;SDS011;8335;42.646;23.380;2023-12-07T08:01:56;19.93;;;13.00;;
8279;SDS011;8335;42.646;23.380;2023-12-07T08:04:23;23.67;;;13.70;;
8279;SDS011;8335;42.646;23.380;2023-12-07T08:06:50;22.00;;;13.93;;
8279;SDS011;8335;42.646;23.380;2023-12-07T08:09:16;25.30;;;13.73;;
8279;SDS011;8335;42.646;23.380;2023-12-07T08:11:44;20.63;;;12.93;;
8279;SDS011;8335;42.646;23.380;2023-12-07T08:14:11;21.53;;;12.70;;
8279;SDS011;8335;42.646;23.380;2023-12-07T08:16:42;19.77;;;12.60;;
8279;SDS011;8335;42.646;23.380;2023-12-07T08:19:09;15.83;;;10.30;;
8279;SDS011;8335;42.646;23.380;2023-12-07T08:21:36;14.80;;;9.87;;
8279;SDS011;8335;42.646;23.380;2023-12-07T08:24:02;15.43;;;9.57;;
8279;SDS011;8335;42.646;23.380;2023-12-07T08:26:30;14.47;;;9.03;;
8279;SDS011;8335;42.646;23.380;2023-12-07T08:28:59;12.97;;;8.30;;
8279;SDS011;8335;42.646;23.380;2023-12-07T08:31:25;12.03;;;8.30;;
8279;SDS011;8335;42.646;23.380;2023-12-07T08:33:52;16.27;;;8.47;;
8279;SDS011;8335;42.646;23.380;2023-12-07T08:36:19;11.50;;;7.37;;
8279;SDS011;8335;42.646;23.380;2023-12-07T08:38:46;17.27;;;8.30;;
8279;SDS011;8335;42.646;23.380;2023-12-07T08:41:12;12.47;;;7.87;;
8279;SDS011;8335;42.646;23.380;2023-12-07T08:43:39;13.33;;;8.63;;
8279;SDS011;8335;42.646;23.380;2023-12-07T08:46:07;12.03;;;8.27;;
8279;SDS011;8335;42.646;23.380;2023-12-07T08:48:35;14.27;;;9.37;;
8279;SDS011;8335;42.646;23.380;2023-12-07T08:51:02;12.87;;;8.33;;
8279;SDS011;8335;42.646;23.380;2023-12-07T08:53:29;12.03;;;8.43;;
8279;SDS011;8335;42.646;23.380;2023-12-07T08:55:56;10.50;;;6.70;;
8279;SDS011;8335;42.646;23.380;2023-12-07T08:58:23;11.73;;;7.40;;
8279;SDS011;8335;42.646;23.380;2023-12-07T09:00:49;9.13;;;6.20;;
8279;SDS011;8335;42.646;23.380;2023-12-07T09:03:18;14.57;;;7.83;;
8279;SDS011;8335;42.646;23.380;2023-12-07T09:05:45;7.73;;;5.63;;
8279;SDS011;8335;42.646;23.380;2023-12-07T09:08:12;8.57;;;6.00;;
8279;SDS011;8335;42.646;23.380;2023-12-07T09:10:38;9.37;;;6.77;;
8279;SDS011;8335;42.646;23.380;2023-12-07T09:13:05;8.93;;;6.53;;
8279;SDS011;8335;42.646;23.380;2023-12-07T09:15:32;8.77;;;5.90;;
8279;SDS011;8335;42.646;23.380;2023-12-07T09:18:02;7.63;;;5.67;;
8279;SDS011;8335;42.646;23.380;2023-12-07T09:20:30;7.17;;;5.13;;
8279;SDS011;8335;42.646;23.380;2023-12-07T09:22:57;7.17;;;5.20;;
8279;SDS011;8335;42.646;23.380;2023-12-07T09:25:23;8.17;;;5.43;;
8279;SDS011;8335;42.646;23.380;2023-12-07T09:27:52;5.97;;;4.87;;
8279;SDS011;8335;42.646;23.380;2023-12-07T09:30:19;8.23;;;5.10;;
8279;SDS011;8335;42.646;23.380;2023-12-07T09:32:46;5.40;;;4.10;;
8279;SDS011;8335;42.646;23.380;2023-12-07T09:35:13;5.63;;;4.50;;
8279;SDS011;8335;42.646;23.380;2023-12-07T09:37:45;4.70;;;3.83;;
8279;SDS011;8335;42.646;23.380;2023-12-07T09:40:15;4.63;;;3.90;;
8279;SDS011;8335;42.646;23.380;2023-12-07T09:42:43;4.23;;;3.80;;
8279;SDS011;8335;42.646;23.380;2023-12-07T09:45:11;3.93;;;3.37;;
8279;SDS011;8335;42.646;23.380;2023-12-07T09:47:38;5.23;;;3.43;;
8279;SDS011;8335;42.646;23.380;2023-12-07T09:50:07;6.07;;;3.30;;
8279;SDS011;8335;42.646;23.380;2023-12-07T09:52:33;3.93;;;3.43;;
8279;SDS011;8335;42.646;23.380;2023-12-07T09:55:02;4.30;;;3.40;;
8279;SDS011;8335;42.646;23.380;2023-12-07T09:57:30;3.97;;;3.13;;
8279;SDS011;8335;42.646;23.380;2023-12-07T09:59:57;3.20;;;2.90;;
8279;SDS011;8335;42.646;23.380;2023-12-07T10:02:22;3.60;;;3.30;;
8279;SDS011;8335;42.646;23.380;2023-12-07T10:05:02;3.63;;;2.80;;
8279;SDS011;8335;42.646;23.380;2023-12-07T10:07:32;3.50;;;3.00;;
8279;SDS011;8335;42.646;23.380;2023-12-07T10:10:00;3.50;;;2.83;;
8279;SDS011;8335;42.646;23.380;2023-12-07T10:12:29;4.17;;;2.90;;
8279;SDS011;8335;42.646;23.380;2023-12-07T10:14:58;3.40;;;3.03;;
8279;SDS011;8335;42.646;23.380;2023-12-07T10:17:28;3.43;;;2.70;;
8279;SDS011;8335;42.646;23.380;2023-12-07T10:20:10;2.87;;;2.57;;
8279;SDS011;8335;42.646;23.380;2023-12-07T10:22:38;5.87;;;2.70;;
8279;SDS011;8335;42.646;23.380;2023-12-07T10:25:05;2.87;;;2.30;;
8279;SDS011;8335;42.646;23.380;2023-12-07T10:27:33;3.00;;;2.70;;
8279;SDS011;8335;42.646;23.380;2023-12-07T10:30:00;3.27;;;2.90;;
8279;SDS011;8335;42.646;23.380;2023-12-07T10:32:27;3.97;;;2.80;;
8279;SDS011;8335;42.646;23.380;2023-12-07T10:34:54;3.33;;;2.53;;
8279;SDS011;8335;42.646;23.380;2023-12-07T10:37:23;3.17;;;2.30;;
8279;SDS011;8335;42.646;23.380;2023-12-07T10:39:51;2.40;;;2.20;;
8279;SDS011;8335;42.646;23.380;2023-12-07T10:42:17;2.60;;;2.20;;
8279;SDS011;8335;42.646;23.380;2023-12-07T10:44:53;3.17;;;2.30;;
8279;SDS011;8335;42.646;23.380;2023-12-07T10:47:24;2.83;;;2.47;;
8279;SDS011;8335;42.646;23.380;2023-12-07T10:49:52;3.67;;;2.40;;
8279;SDS011;8335;42.646;23.380;2023-12-07T10:52:24;2.77;;;2.50;;
8279;SDS011;8335;42.646;23.380;2023-12-07T10:54:53;2.93;;;2.30;;
8279;SDS011;8335;42.646;23.380;2023-12-07T10:57:28;4.70;;;2.30;;
8279;SDS011;8335;42.646;23.380;2023-12-07T10:59:58;3.37;;;2.70;;
8279;SDS011;8335;42.646;23.380;2023-12-07T11:02:26;2.47;;;2.27;;
8279;SDS011;8335;42.646;23.380;2023-12-07T11:04:54;3.90;;;2.47;;
8279;SDS011;8335;42.646;23.380;2023-12-07T11:07:23;4.10;;;2.93;;
8279;SDS011;8335;42.646;23.380;2023-12-07T11:10:02;3.03;;;2.73;;
8279;SDS011;8335;42.646;23.380;2023-12-07T11:12:35;3.73;;;2.67;;
8279;SDS011;8335;42.646;23.380;2023-12-07T11:15:08;3.60;;;2.67;;
8279;SDS011;8335;42.646;23.380;2023-12-07T11:17:47;3.97;;;2.73;;
8279;SDS011;8335;42.646;23.380;2023-12-07T11:20:18;3.63;;;2.73;;
8279;SDS011;8335;42.646;23.380;2023-12-07T11:22:45;3.77;;;2.60;;
8279;SDS011;8335;42.646;23.380;2023-12-07T11:25:14;4.73;;;3.13;;
8279;SDS011;8335;42.646;23.380;2023-12-07T11:27:43;3.10;;;2.80;;
8279;SDS011;8335;42.646;23.380;2023-12-07T11:30:14;4.03;;;2.60;;
8279;SDS011;8335;42.646;23.380;2023-12-07T11:32:41;5.00;;;2.77;;
8279;SDS011;8335;42.646;23.380;2023-12-07T11:35:11;3.73;;;2.90;;
8279;SDS011;8335;42.646;23.380;2023-12-07T11:40:32;4.63;;;3.10;;
8279;SDS011;8335;42.646;23.380;2023-12-07T11:43:01;3.33;;;2.97;;
8279;SDS011;8335;42.646;23.380;2023-12-07T11:45:38;4.27;;;3.10;;
8279;SDS011;8335;42.646;23.380;2023-12-07T11:48:06;5.03;;;3.30;;
8279;SDS011;8335;42.646;23.380;2023-12-07T11:50:36;3.77;;;3.10;;
8279;SDS011;8335;42.646;23.380;2023-12-07T11:53:21;3.67;;;2.70;;
8279;SDS011;8335;42.646;23.380;2023-12-07T11:55:49;4.37;;;2.80;;
8279;SDS011;8335;42.646;23.380;2023-12-07T11:58:16;3.23;;;2.80;;
8279;SDS011;8335;42.646;23.380;2023-12-07T12:00:44;3.87;;;2.97;;
8279;SDS011;8335;42.646;23.380;2023-12-07T12:03:12;4.00;;;2.90;;
8279;SDS011;8335;42.646;23.380;2023-12-07T12:05:40;4.97;;;3.20;;
8279;SDS011;8335;42.646;23.380;2023-12-07T12:08:08;3.63;;;2.80;;
8279;SDS011;8335;42.646;23.380;2023-12-07T12:10:35;3.13;;;2.83;;
8279;SDS011;8335;42.646;23.380;2023-12-07T12:13:02;4.43;;;3.03;;
8279;SDS011;8335;42.646;23.380;2023-12-07T12:15:29;3.07;;;2.77;;
8279;SDS011;8335;42.646;23.380;2023-12-07T12:17:58;4.73;;;3.30;;
8279;SDS011;8335;42.646;23.380;2023-12-07T12:20:25;4.67;;;3.97;;
8279;SDS011;8335;42.646;23.380;2023-12-07T12:22:52;4.23;;;3.30;;
8279;SDS011;8335;42.646;23.380;2023-12-07T12:25:20;5.70;;;3.50;;
8279;SDS011;8335;42.646;23.380;2023-12-07T12:27:49;9.83;;;4.10;;
8279;SDS011;8335;42.646;23.380;2023-12-07T12:30:18;4.80;;;3.60;;
8279;SDS011;8335;42.646;23.380;2023-12-07T12:32:47;4.43;;;3.33;;
8279;SDS011;8335;42.646;23.380;2023-12-07T12:35:16;4.20;;;3.47;;
8279;SDS011;8335;42.646;23.380;2023-12-07T12:37:43;6.33;;;3.53;;
8279;SDS011;8335;42.646;23.380;2023-12-07T12:40:12;4.67;;;3.13;;
8279;SDS011;8335;42.646;23.380;2023-12-07T12:42:42;5.40;;;2.80;;
8279;SDS011;8335;42.646;23.380;2023-12-07T12:45:09;4.00;;;3.20;;
8279;SDS011;8335;42.646;23.380;2023-12-07T12:47:37;4.00;;;3.20;;
8279;SDS011;8335;42.646;23.380;2023-12-07T12:50:05;6.00;;;3.73;;
8279;SDS011;8335;42.646;23.380;2023-12-07T12:52:33;4.37;;;3.63;;
8279;SDS011;8335;42.646;23.380;2023-12-07T12:55:01;4.13;;;3.73;;
8279;SDS011;8335;42.646;23.380;2023-12-07T12:57:28;4.93;;;3.80;;
8279;SDS011;8335;42.646;23.380;2023-12-07T12:59:55;6.23;;;4.10;;
8279;SDS011;8335;42.646;23.380;2023-12-07T13:02:22;5.13;;;3.90;;
8279;SDS011;8335;42.646;23.380;2023-12-07T13:04:51;4.57;;;3.90;;
8279;SDS011;8335;42.646;23.380;2023-12-07T13:07:22;4.87;;;3.80;;
8279;SDS011;8335;42.646;23.380;2023-12-07T13:09:50;4.57;;;3.90;;
8279;SDS011;8335;42.646;23.380;2023-12-07T13:12:17;4.70;;;4.20;;
8279;SDS011;8335;42.646;23.380;2023-12-07T13:14:45;3.93;;;3.20;;
8279;SDS011;8335;42.646;23.380;2023-12-07T13:17:12;4.67;;;3.77;;
8279;SDS011;8335;42.646;23.380;2023-12-07T13:19:38;4.70;;;3.73;;
8279;SDS011;8335;42.646;23.380;2023-12-07T13:22:05;4.97;;;4.10;;
8279;SDS011;8335;42.646;23.380;2023-12-07T13:24:32;5.20;;;4.00;;
8279;SDS011;8335;42.646;23.380;2023-12-07T13:27:00;6.13;;;4.23;;
8279;SDS011;8335;42.646;23.380;2023-12-07T13:29:27;4.73;;;3.70;;
8279;SDS011;8335;42.646;23.380;2023-12-07T13:31:54;5.03;;;4.10;;
8279;SDS011;8335;42.646;23.380;2023-12-07T13:34:20;11.60;;;4.40;;
8279;SDS011;8335;42.646;23.380;2023-12-07T13:36:47;4.80;;;4.30;;
8279;SDS011;8335;42.646;23.380;2023-12-07T13:39:14;4.53;;;3.70;;
8279;SDS011;8335;42.646;23.380;2023-12-07T13:41:41;7.40;;;4.57;;
8279;SDS011;8335;42.646;23.380;2023-12-07T13:44:09;5.43;;;4.50;;
8279;SDS011;8335;42.646;23.380;2023-12-07T13:46:36;8.10;;;4.97;;
8279;SDS011;8335;42.646;23.380;2023-12-07T13:49:03;4.67;;;4.20;;
8279;SDS011;8335;42.646;23.380;2023-12-07T13:51:30;4.70;;;4.10;;
8279;SDS011;8335;42.646;23.380;2023-12-07T13:53:57;5.50;;;4.50;;
8279;SDS011;8335;42.646;23.380;2023-12-07T13:56:23;5.90;;;4.63;;
8279;SDS011;8335;42.646;23.380;2023-12-07T13:58:50;5.57;;;4.63;;
8279;SDS011;8335;42.646;23.380;2023-12-07T14:01:18;5.90;;;5.23;;
8279;SDS011;8335;42.646;23.380;2023-12-07T14:03:45;5.90;;;5.10;;
8279;SDS011;8335;42.646;23.380;2023-12-07T14:06:11;6.83;;;4.97;;
8279;SDS011;8335;42.646;23.380;2023-12-07T14:08:47;6.57;;;5.37;;
8279;SDS011;8335;42.646;23.380;2023-12-07T14:11:13;6.07;;;5.47;;
8279;SDS011;8335;42.646;23.380;2023-12-07T14:13:40;7.57;;;5.27;;
8279;SDS011;8335;42.646;23.380;2023-12-07T14:16:07;9.70;;;6.10;;
8279;SDS011;8335;42.646;23.380;2023-12-07T14:18:35;9.20;;;5.60;;
8279;SDS011;8335;42.646;23.380;2023-12-07T14:21:02;7.63;;;5.37;;
8279;SDS011;8335;42.646;23.380;2023-12-07T14:23:29;9.07;;;6.03;;
8279;SDS011;8335;42.646;23.380;2023-12-07T14:25:56;7.33;;;6.10;;
8279;SDS011;8335;42.646;23.380;2023-12-07T14:28:24;7.70;;;5.57;;
8279;SDS011;8335;42.646;23.380;2023-12-07T14:30:53;7.00;;;5.43;;
8279;SDS011;8335;42.646;23.380;2023-12-07T14:33:21;8.60;;;5.90;;
8279;SDS011;8335;42.646;23.380;2023-12-07T14:35:49;9.47;;;6.43;;
8279;SDS011;8335;42.646;23.380;2023-12-07T14:38:16;5.80;;;5.23;;
8279;SDS011;8335;42.646;23.380;2023-12-07T14:40:43;8.80;;;6.00;;
8279;SDS011;8335;42.646;23.380;2023-12-07T14:43:09;9.40;;;6.53;;
8279;SDS011;8335;42.646;23.380;2023-12-07T14:45:36;7.87;;;5.90;;
8279;SDS011;8335;42.646;23.380;2023-12-07T14:48:03;7.33;;;6.07;;
8279;SDS011;8335;42.646;23.380;2023-12-07T14:50:31;7.83;;;6.20;;